Pagina principale
METAR-TAF:

METAR-TAF

Aeroporti :

Aeroporto di Perugia

Perugia, Italia

latitudine: 43-05N, longitudine: 012-30E, altezza: 208 m

Osservazione

Il bollettino è stato emesso 25 minuti fa, alle 13:50 UTC
Vento 8 kt da nord-ovest
Temperature 26°C
Umidità 61%
Pressione 1016 hPa
Visibilità 10 km o più
pioggia

METAR: LIRZ 271350Z AUTO 31008KT 9999 RA BKN049/// BKN072/// 26/18 Q1016

Ora: 16:15 (14:15 UTC)

Previsione

Il bollettino è stato emesso 10 minuti fa, alle 14:05 UTC
Previsione valida dal 27 alle 14 UTC al 28 alle 12 UTC
Vento 5 kt da direzioni variabili
Visibilità 10 km o più
Nubi sparse ad un'altezza di 3000 ft
Temporaneamente
dal 27 alle 14 UTC al 27 alle 17 UTC
rovesci di pioggia

TAF: LIRZ 271405Z 2714/2812 VRB05KT 9999 SCT030 TEMPO 2714/2717 SHRA

Osservazioni e previsioni meteorologiche di più di 4000 aeroporti (messaggi METAR e TAF).

Le stazioni disponibili sono rappresentate dai dischi gialli e rossi sulla carta.

Puntare il mouse per vedere il nome della stazione.

Clicca sopra per visualizzare le osservazioni e previsioni meteorologiche.

Per cambiare la mappa : fare clic sui pulsanti verdi con una croce nera per ingrandire, il pulsante verde con un trattino per diminuire, o sulla freccia verde per le mappe adiacenti.


METAR-TAF: